sensor_id;sensor_type;location;lat;lon;timestamp;P1;durP1;ratioP1;P2;durP2;ratioP2
41887;SDS011;63122;52.424;13.458;2023-06-19T00:00:52;10.07;;;8.88;;
41887;SDS011;63122;52.424;13.458;2023-06-19T00:03:04;12.18;;;9.07;;
41887;SDS011;63122;52.424;13.458;2023-06-19T00:05:00;12.50;;;8.85;;
41887;SDS011;63122;52.424;13.458;2023-06-19T00:06:55;10.18;;;9.18;;
41887;SDS011;63122;52.424;13.458;2023-06-19T00:08:51;13.48;;;9.40;;
41887;SDS011;63122;52.424;13.458;2023-06-19T00:10:47;12.23;;;8.95;;
41887;SDS011;63122;52.424;13.458;2023-06-19T00:12:43;10.27;;;9.25;;
41887;SDS011;63122;52.424;13.458;2023-06-19T00:14:38;11.88;;;9.20;;
41887;SDS011;63122;52.424;13.458;2023-06-19T00:16:35;10.60;;;8.75;;
41887;SDS011;63122;52.424;13.458;2023-06-19T00:18:33;14.40;;;9.20;;
41887;SDS011;63122;52.424;13.458;2023-06-19T00:20:33;19.27;;;9.10;;
41887;SDS011;63122;52.424;13.458;2023-06-19T00:22:31;10.70;;;9.55;;
41887;SDS011;63122;52.424;13.458;2023-06-19T00:24:26;11.50;;;9.52;;
41887;SDS011;63122;52.424;13.458;2023-06-19T00:26:21;12.13;;;9.18;;
41887;SDS011;63122;52.424;13.458;2023-06-19T00:28:17;10.85;;;9.00;;
41887;SDS011;63122;52.424;13.458;2023-06-19T00:30:13;17.55;;;9.73;;
41887;SDS011;63122;52.424;13.458;2023-06-19T00:32:09;12.52;;;9.77;;
41887;SDS011;63122;52.424;13.458;2023-06-19T00:34:07;12.60;;;10.13;;
41887;SDS011;63122;52.424;13.458;2023-06-19T00:36:03;15.65;;;9.55;;
41887;SDS011;63122;52.424;13.458;2023-06-19T00:38:04;10.02;;;8.68;;
41887;SDS011;63122;52.424;13.458;2023-06-19T00:40:00;13.50;;;9.25;;
41887;SDS011;63122;52.424;13.458;2023-06-19T00:41:56;14.65;;;9.57;;
41887;SDS011;63122;52.424;13.458;2023-06-19T00:43:51;15.00;;;9.75;;
41887;SDS011;63122;52.424;13.458;2023-06-19T00:45:47;13.60;;;9.25;;
41887;SDS011;63122;52.424;13.458;2023-06-19T00:47:42;11.25;;;9.27;;
41887;SDS011;63122;52.424;13.458;2023-06-19T00:49:41;10.82;;;9.13;;
41887;SDS011;63122;52.424;13.458;2023-06-19T00:51:37;11.23;;;9.57;;
41887;SDS011;63122;52.424;13.458;2023-06-19T00:53:33;11.55;;;10.35;;
41887;SDS011;63122;52.424;13.458;2023-06-19T00:55:29;10.50;;;9.35;;
41887;SDS011;63122;52.424;13.458;2023-06-19T00:57:27;12.75;;;10.02;;
41887;SDS011;63122;52.424;13.458;2023-06-19T00:59:23;12.30;;;9.32;;
41887;SDS011;63122;52.424;13.458;2023-06-19T01:01:19;12.55;;;10.13;;
41887;SDS011;63122;52.424;13.458;2023-06-19T01:03:16;14.52;;;9.40;;
41887;SDS011;63122;52.424;13.458;2023-06-19T01:05:14;15.65;;;9.88;;
41887;SDS011;63122;52.424;13.458;2023-06-19T01:07:12;12.13;;;10.13;;
41887;SDS011;63122;52.424;13.458;2023-06-19T01:09:15;13.77;;;10.20;;
41887;SDS011;63122;52.424;13.458;2023-06-19T01:11:12;12.02;;;10.82;;
41887;SDS011;63122;52.424;13.458;2023-06-19T01:13:19;11.27;;;10.07;;
41887;SDS011;63122;52.424;13.458;2023-06-19T01:15:22;13.23;;;10.10;;
41887;SDS011;63122;52.424;13.458;2023-06-19T01:17:19;12.75;;;10.57;;
41887;SDS011;63122;52.424;13.458;2023-06-19T01:19:17;13.48;;;10.45;;
41887;SDS011;63122;52.424;13.458;2023-06-19T01:21:18;13.88;;;10.43;;
41887;SDS011;63122;52.424;13.458;2023-06-19T01:23:17;11.77;;;10.25;;
41887;SDS011;63122;52.424;13.458;2023-06-19T01:25:14;11.38;;;10.25;;
41887;SDS011;63122;52.424;13.458;2023-06-19T01:27:07;14.35;;;11.05;;
41887;SDS011;63122;52.424;13.458;2023-06-19T01:29:02;13.45;;;10.32;;
41887;SDS011;63122;52.424;13.458;2023-06-19T01:30:59;12.18;;;10.48;;
41887;SDS011;63122;52.424;13.458;2023-06-19T01:32:58;15.82;;;10.23;;
41887;SDS011;63122;52.424;13.458;2023-06-19T01:35:00;12.40;;;9.88;;
41887;SDS011;63122;52.424;13.458;2023-06-19T01:36:57;13.25;;;11.13;;
41887;SDS011;63122;52.424;13.458;2023-06-19T01:38:57;11.90;;;10.70;;
41887;SDS011;63122;52.424;13.458;2023-06-19T01:40:55;13.88;;;10.98;;
41887;SDS011;63122;52.424;13.458;2023-06-19T01:42:53;11.73;;;10.38;;
41887;SDS011;63122;52.424;13.458;2023-06-19T01:44:50;12.23;;;10.45;;
41887;SDS011;63122;52.424;13.458;2023-06-19T01:46:47;11.75;;;10.30;;
41887;SDS011;63122;52.424;13.458;2023-06-19T01:48:44;11.50;;;10.30;;
41887;SDS011;63122;52.424;13.458;2023-06-19T01:50:40;12.43;;;11.05;;
41887;SDS011;63122;52.424;13.458;2023-06-19T01:52:40;14.40;;;10.57;;
41887;SDS011;63122;52.424;13.458;2023-06-19T01:54:39;14.15;;;11.02;;
41887;SDS011;63122;52.424;13.458;2023-06-19T01:56:35;12.23;;;10.93;;
41887;SDS011;63122;52.424;13.458;2023-06-19T01:58:32;13.18;;;10.52;;
41887;SDS011;63122;52.424;13.458;2023-06-19T02:00:28;14.02;;;11.18;;
41887;SDS011;63122;52.424;13.458;2023-06-19T02:02:28;12.13;;;10.50;;
41887;SDS011;63122;52.424;13.458;2023-06-19T02:04:24;14.65;;;11.32;;
41887;SDS011;63122;52.424;13.458;2023-06-19T02:06:20;12.32;;;11.13;;
41887;SDS011;63122;52.424;13.458;2023-06-19T02:08:16;12.98;;;11.63;;
41887;SDS011;63122;52.424;13.458;2023-06-19T02:10:15;12.23;;;10.93;;
41887;SDS011;63122;52.424;13.458;2023-06-19T02:12:11;13.13;;;10.98;;
41887;SDS011;63122;52.424;13.458;2023-06-19T02:14:07;13.63;;;11.45;;
41887;SDS011;63122;52.424;13.458;2023-06-19T02:16:04;13.25;;;11.50;;
41887;SDS011;63122;52.424;13.458;2023-06-19T02:18:00;12.95;;;11.65;;
41887;SDS011;63122;52.424;13.458;2023-06-19T02:19:56;12.63;;;11.32;;
41887;SDS011;63122;52.424;13.458;2023-06-19T02:21:52;15.15;;;11.57;;
41887;SDS011;63122;52.424;13.458;2023-06-19T02:23:48;15.32;;;12.25;;
41887;SDS011;63122;52.424;13.458;2023-06-19T02:25:47;12.80;;;11.50;;
41887;SDS011;63122;52.424;13.458;2023-06-19T02:27:44;15.35;;;13.57;;
41887;SDS011;63122;52.424;13.458;2023-06-19T02:29:40;13.45;;;12.15;;
41887;SDS011;63122;52.424;13.458;2023-06-19T02:31:35;13.82;;;12.25;;
41887;SDS011;63122;52.424;13.458;2023-06-19T02:33:30;27.23;;;12.07;;
41887;SDS011;63122;52.424;13.458;2023-06-19T02:35:26;13.98;;;12.27;;
41887;SDS011;63122;52.424;13.458;2023-06-19T02:37:22;13.23;;;11.82;;
41887;SDS011;63122;52.424;13.458;2023-06-19T02:39:17;13.50;;;12.20;;
41887;SDS011;63122;52.424;13.458;2023-06-19T02:41:16;15.15;;;11.55;;
41887;SDS011;63122;52.424;13.458;2023-06-19T02:43:12;15.57;;;13.40;;
41887;SDS011;63122;52.424;13.458;2023-06-19T02:45:08;15.95;;;12.88;;
41887;SDS011;63122;52.424;13.458;2023-06-19T02:47:04;13.50;;;12.10;;
41887;SDS011;63122;52.424;13.458;2023-06-19T02:49:00;15.75;;;11.80;;
41887;SDS011;63122;52.424;13.458;2023-06-19T02:50:56;13.80;;;11.88;;
41887;SDS011;63122;52.424;13.458;2023-06-19T02:52:52;13.02;;;11.57;;
41887;SDS011;63122;52.424;13.458;2023-06-19T02:54:47;15.23;;;12.15;;
41887;SDS011;63122;52.424;13.458;2023-06-19T02:56:47;15.43;;;12.23;;
41887;SDS011;63122;52.424;13.458;2023-06-19T02:58:43;16.77;;;12.35;;
41887;SDS011;63122;52.424;13.458;2023-06-19T03:00:39;18.63;;;12.13;;
41887;SDS011;63122;52.424;13.458;2023-06-19T03:02:34;13.43;;;11.60;;
41887;SDS011;63122;52.424;13.458;2023-06-19T03:04:34;15.10;;;11.93;;
41887;SDS011;63122;52.424;13.458;2023-06-19T03:06:29;13.73;;;12.32;;
41887;SDS011;63122;52.424;13.458;2023-06-19T03:08:25;13.95;;;12.45;;
41887;SDS011;63122;52.424;13.458;2023-06-19T03:10:21;14.98;;;12.05;;
41887;SDS011;63122;52.424;13.458;2023-06-19T03:12:20;14.38;;;11.30;;
41887;SDS011;63122;52.424;13.458;2023-06-19T03:14:15;16.05;;;12.32;;
41887;SDS011;63122;52.424;13.458;2023-06-19T03:16:11;15.45;;;12.43;;
41887;SDS011;63122;52.424;13.458;2023-06-19T03:18:07;13.48;;;12.13;;
41887;SDS011;63122;52.424;13.458;2023-06-19T03:20:03;13.65;;;12.23;;
41887;SDS011;63122;52.424;13.458;2023-06-19T03:22:04;13.48;;;12.07;;
41887;SDS011;63122;52.424;13.458;2023-06-19T03:23:59;17.67;;;12.55;;
41887;SDS011;63122;52.424;13.458;2023-06-19T03:25:55;14.82;;;12.43;;
41887;SDS011;63122;52.424;13.458;2023-06-19T03:27:54;16.50;;;12.38;;
41887;SDS011;63122;52.424;13.458;2023-06-19T03:29:50;16.70;;;12.38;;
41887;SDS011;63122;52.424;13.458;2023-06-19T03:31:45;13.82;;;12.20;;
41887;SDS011;63122;52.424;13.458;2023-06-19T03:33:42;16.83;;;13.18;;
41887;SDS011;63122;52.424;13.458;2023-06-19T03:35:38;16.75;;;13.27;;
41887;SDS011;63122;52.424;13.458;2023-06-19T03:37:35;14.32;;;12.90;;
41887;SDS011;63122;52.424;13.458;2023-06-19T03:39:31;19.17;;;13.15;;
41887;SDS011;63122;52.424;13.458;2023-06-19T03:41:26;14.25;;;12.27;;
41887;SDS011;63122;52.424;13.458;2023-06-19T03:43:24;14.70;;;13.20;;
41887;SDS011;63122;52.424;13.458;2023-06-19T03:45:20;16.52;;;12.65;;
41887;SDS011;63122;52.424;13.458;2023-06-19T03:47:15;14.50;;;12.55;;
41887;SDS011;63122;52.424;13.458;2023-06-19T03:49:11;15.70;;;13.20;;
41887;SDS011;63122;52.424;13.458;2023-06-19T03:51:07;19.73;;;14.27;;
41887;SDS011;63122;52.424;13.458;2023-06-19T03:53:04;14.75;;;13.23;;
41887;SDS011;63122;52.424;13.458;2023-06-19T03:55:00;15.13;;;13.60;;
41887;SDS011;63122;52.424;13.458;2023-06-19T03:56:56;19.05;;;14.05;;
41887;SDS011;63122;52.424;13.458;2023-06-19T03:58:54;14.88;;;13.38;;
41887;SDS011;63122;52.424;13.458;2023-06-19T04:00:50;17.20;;;13.45;;
41887;SDS011;63122;52.424;13.458;2023-06-19T04:02:46;16.23;;;13.60;;
41887;SDS011;63122;52.424;13.458;2023-06-19T04:04:43;15.50;;;13.05;;
41887;SDS011;63122;52.424;13.458;2023-06-19T04:06:39;13.95;;;12.55;;
41887;SDS011;63122;52.424;13.458;2023-06-19T04:08:35;16.80;;;13.13;;
41887;SDS011;63122;52.424;13.458;2023-06-19T04:10:31;15.93;;;13.48;;
41887;SDS011;63122;52.424;13.458;2023-06-19T04:12:27;14.43;;;12.93;;
41887;SDS011;63122;52.424;13.458;2023-06-19T04:14:25;17.00;;;14.15;;
41887;SDS011;63122;52.424;13.458;2023-06-19T04:16:21;14.15;;;12.68;;
41887;SDS011;63122;52.424;13.458;2023-06-19T04:18:17;15.10;;;12.25;;
41887;SDS011;63122;52.424;13.458;2023-06-19T04:20:13;14.55;;;13.05;;
41887;SDS011;63122;52.424;13.458;2023-06-19T04:22:08;17.10;;;12.07;;
41887;SDS011;63122;52.424;13.458;2023-06-19T04:24:04;14.60;;;12.88;;
41887;SDS011;63122;52.424;13.458;2023-06-19T04:26:01;14.65;;;13.10;;
41887;SDS011;63122;52.424;13.458;2023-06-19T04:27:57;15.13;;;13.20;;
41887;SDS011;63122;52.424;13.458;2023-06-19T04:29:58;13.68;;;12.10;;
41887;SDS011;63122;52.424;13.458;2023-06-19T04:31:54;14.40;;;12.90;;
41887;SDS011;63122;52.424;13.458;2023-06-19T04:33:49;15.80;;;12.88;;
41887;SDS011;63122;52.424;13.458;2023-06-19T04:35:47;14.48;;;12.55;;
41887;SDS011;63122;52.424;13.458;2023-06-19T04:37:43;14.27;;;12.23;;
41887;SDS011;63122;52.424;13.458;2023-06-19T04:39:41;16.10;;;13.68;;
41887;SDS011;63122;52.424;13.458;2023-06-19T04:41:37;15.30;;;13.70;;
41887;SDS011;63122;52.424;13.458;2023-06-19T04:43:34;20.90;;;16.17;;
41887;SDS011;63122;52.424;13.458;2023-06-19T04:45:32;17.95;;;13.13;;
41887;SDS011;63122;52.424;13.458;2023-06-19T04:47:28;20.25;;;14.25;;
41887;SDS011;63122;52.424;13.458;2023-06-19T04:49:40;14.82;;;13.32;;
41887;SDS011;63122;52.424;13.458;2023-06-19T04:51:35;15.63;;;13.23;;
41887;SDS011;63122;52.424;13.458;2023-06-19T04:53:31;16.33;;;13.40;;
41887;SDS011;63122;52.424;13.458;2023-06-19T04:55:27;17.02;;;13.63;;
41887;SDS011;63122;52.424;13.458;2023-06-19T04:57:22;17.27;;;13.98;;
41887;SDS011;63122;52.424;13.458;2023-06-19T04:59:18;16.70;;;14.13;;
41887;SDS011;63122;52.424;13.458;2023-06-19T05:01:17;14.45;;;12.95;;
41887;SDS011;63122;52.424;13.458;2023-06-19T05:03:20;18.42;;;14.30;;
41887;SDS011;63122;52.424;13.458;2023-06-19T05:05:16;14.35;;;12.90;;
41887;SDS011;63122;52.424;13.458;2023-06-19T05:07:15;20.92;;;13.77;;
41887;SDS011;63122;52.424;13.458;2023-06-19T05:09:10;13.45;;;12.05;;
41887;SDS011;63122;52.424;13.458;2023-06-19T05:11:06;14.82;;;13.30;;
41887;SDS011;63122;52.424;13.458;2023-06-19T05:13:01;15.25;;;13.23;;
41887;SDS011;63122;52.424;13.458;2023-06-19T05:14:56;15.43;;;13.20;;
41887;SDS011;63122;52.424;13.458;2023-06-19T05:16:54;14.55;;;13.02;;
41887;SDS011;63122;52.424;13.458;2023-06-19T05:18:50;14.68;;;12.60;;
41887;SDS011;63122;52.424;13.458;2023-06-19T05:20:46;13.68;;;12.30;;
41887;SDS011;63122;52.424;13.458;2023-06-19T05:22:42;14.27;;;12.93;;
41887;SDS011;63122;52.424;13.458;2023-06-19T05:24:37;16.05;;;13.65;;
41887;SDS011;63122;52.424;13.458;2023-06-19T05:26:33;15.57;;;13.88;;
41887;SDS011;63122;52.424;13.458;2023-06-19T05:28:28;16.70;;;14.93;;
41887;SDS011;63122;52.424;13.458;2023-06-19T05:30:23;20.80;;;16.10;;
41887;SDS011;63122;52.424;13.458;2023-06-19T05:32:21;19.60;;;14.55;;
41887;SDS011;63122;52.424;13.458;2023-06-19T05:34:16;17.85;;;14.00;;
41887;SDS011;63122;52.424;13.458;2023-06-19T05:36:11;17.25;;;15.13;;
41887;SDS011;63122;52.424;13.458;2023-06-19T05:38:07;18.00;;;14.25;;
41887;SDS011;63122;52.424;13.458;2023-06-19T05:40:02;16.38;;;13.90;;
41887;SDS011;63122;52.424;13.458;2023-06-19T05:41:59;18.17;;;14.38;;
41887;SDS011;63122;52.424;13.458;2023-06-19T05:43:55;22.67;;;14.68;;
41887;SDS011;63122;52.424;13.458;2023-06-19T05:45:52;16.02;;;14.30;;
41887;SDS011;63122;52.424;13.458;2023-06-19T05:47:53;16.30;;;13.43;;
41887;SDS011;63122;52.424;13.458;2023-06-19T05:49:50;19.00;;;13.60;;
41887;SDS011;63122;52.424;13.458;2023-06-19T05:51:45;17.45;;;13.68;;
41887;SDS011;63122;52.424;13.458;2023-06-19T05:53:42;15.57;;;13.70;;
41887;SDS011;63122;52.424;13.458;2023-06-19T05:55:38;18.00;;;14.10;;
41887;SDS011;63122;52.424;13.458;2023-06-19T05:57:34;17.60;;;13.85;;
41887;SDS011;63122;52.424;13.458;2023-06-19T05:59:30;16.00;;;13.70;;
41887;SDS011;63122;52.424;13.458;2023-06-19T06:01:26;16.05;;;14.20;;
41887;SDS011;63122;52.424;13.458;2023-06-19T06:03:25;19.17;;;13.68;;
41887;SDS011;63122;52.424;13.458;2023-06-19T06:05:23;15.32;;;13.80;;
41887;SDS011;63122;52.424;13.458;2023-06-19T06:07:19;15.32;;;12.55;;
41887;SDS011;63122;52.424;13.458;2023-06-19T06:09:16;18.52;;;13.75;;
41887;SDS011;63122;52.424;13.458;2023-06-19T06:11:12;15.32;;;13.40;;
41887;SDS011;63122;52.424;13.458;2023-06-19T06:13:08;18.90;;;13.70;;
41887;SDS011;63122;52.424;13.458;2023-06-19T06:15:05;16.55;;;13.68;;
41887;SDS011;63122;52.424;13.458;2023-06-19T06:17:01;15.75;;;13.55;;
41887;SDS011;63122;52.424;13.458;2023-06-19T06:19:01;20.48;;;14.20;;
41887;SDS011;63122;52.424;13.458;2023-06-19T06:20:57;16.00;;;13.00;;
41887;SDS011;63122;52.424;13.458;2023-06-19T06:22:53;15.90;;;13.10;;
41887;SDS011;63122;52.424;13.458;2023-06-19T06:24:49;18.33;;;13.70;;
41887;SDS011;63122;52.424;13.458;2023-06-19T06:26:46;14.55;;;13.05;;
41887;SDS011;63122;52.424;13.458;2023-06-19T06:28:42;15.75;;;13.75;;
41887;SDS011;63122;52.424;13.458;2023-06-19T06:30:38;19.45;;;14.68;;
41887;SDS011;63122;52.424;13.458;2023-06-19T06:32:34;18.17;;;13.70;;
41887;SDS011;63122;52.424;13.458;2023-06-19T06:34:33;19.20;;;14.98;;
41887;SDS011;63122;52.424;13.458;2023-06-19T06:36:29;24.80;;;14.43;;
41887;SDS011;63122;52.424;13.458;2023-06-19T06:38:29;15.80;;;14.00;;
41887;SDS011;63122;52.424;13.458;2023-06-19T06:40:25;18.27;;;14.30;;
41887;SDS011;63122;52.424;13.458;2023-06-19T06:42:21;22.48;;;14.18;;
41887;SDS011;63122;52.424;13.458;2023-06-19T06:44:17;15.90;;;13.23;;
41887;SDS011;63122;52.424;13.458;2023-06-19T06:46:13;18.77;;;13.50;;
41887;SDS011;63122;52.424;13.458;2023-06-19T06:48:09;18.48;;;14.57;;
41887;SDS011;63122;52.424;13.458;2023-06-19T06:50:08;16.38;;;13.68;;
41887;SDS011;63122;52.424;13.458;2023-06-19T06:52:06;15.68;;;14.07;;
41887;SDS011;63122;52.424;13.458;2023-06-19T06:54:02;21.83;;;14.77;;
41887;SDS011;63122;52.424;13.458;2023-06-19T06:55:58;16.33;;;13.82;;
41887;SDS011;63122;52.424;13.458;2023-06-19T06:57:55;16.70;;;13.90;;
41887;SDS011;63122;52.424;13.458;2023-06-19T06:59:51;17.58;;;14.32;;
41887;SDS011;63122;52.424;13.458;2023-06-19T07:01:47;16.00;;;13.77;;
41887;SDS011;63122;52.424;13.458;2023-06-19T07:03:43;17.35;;;13.60;;
41887;SDS011;63122;52.424;13.458;2023-06-19T07:05:42;15.98;;;13.30;;
41887;SDS011;63122;52.424;13.458;2023-06-19T07:07:38;15.38;;;13.77;;
41887;SDS011;63122;52.424;13.458;2023-06-19T07:09:33;20.15;;;14.48;;
41887;SDS011;63122;52.424;13.458;2023-06-19T07:11:29;18.52;;;14.05;;
41887;SDS011;63122;52.424;13.458;2023-06-19T07:13:24;16.17;;;14.48;;
41887;SDS011;63122;52.424;13.458;2023-06-19T07:15:20;22.98;;;13.68;;
41887;SDS011;63122;52.424;13.458;2023-06-19T07:17:16;16.20;;;13.80;;
41887;SDS011;63122;52.424;13.458;2023-06-19T07:19:12;20.20;;;13.57;;
41887;SDS011;63122;52.424;13.458;2023-06-19T07:21:11;17.33;;;13.38;;
41887;SDS011;63122;52.424;13.458;2023-06-19T07:23:08;19.67;;;13.63;;
41887;SDS011;63122;52.424;13.458;2023-06-19T07:25:05;14.50;;;13.00;;
41887;SDS011;63122;52.424;13.458;2023-06-19T07:27:01;19.13;;;14.30;;
41887;SDS011;63122;52.424;13.458;2023-06-19T07:28:57;21.55;;;14.52;;
41887;SDS011;63122;52.424;13.458;2023-06-19T07:30:53;15.38;;;13.77;;
41887;SDS011;63122;52.424;13.458;2023-06-19T07:32:48;15.80;;;13.60;;
41887;SDS011;63122;52.424;13.458;2023-06-19T07:34:44;17.58;;;13.55;;
41887;SDS011;63122;52.424;13.458;2023-06-19T07:36:42;20.35;;;14.45;;
41887;SDS011;63122;52.424;13.458;2023-06-19T07:38:38;19.00;;;15.57;;
41887;SDS011;63122;52.424;13.458;2023-06-19T07:40:33;19.10;;;14.40;;
41887;SDS011;63122;52.424;13.458;2023-06-19T07:42:28;16.55;;;14.13;;
41887;SDS011;63122;52.424;13.458;2023-06-19T07:44:23;20.05;;;14.75;;
41887;SDS011;63122;52.424;13.458;2023-06-19T07:46:19;15.82;;;14.10;;
41887;SDS011;63122;52.424;13.458;2023-06-19T07:48:14;20.92;;;14.30;;
41887;SDS011;63122;52.424;13.458;2023-06-19T07:50:10;21.02;;;14.38;;
41887;SDS011;63122;52.424;13.458;2023-06-19T07:52:10;18.02;;;14.00;;
41887;SDS011;63122;52.424;13.458;2023-06-19T07:54:05;16.50;;;13.10;;
41887;SDS011;63122;52.424;13.458;2023-06-19T07:56:00;16.73;;;14.00;;
41887;SDS011;63122;52.424;13.458;2023-06-19T07:57:56;24.70;;;14.20;;
41887;SDS011;63122;52.424;13.458;2023-06-19T07:59:52;19.65;;;13.15;;
41887;SDS011;63122;52.424;13.458;2023-06-19T08:01:49;18.45;;;13.60;;
41887;SDS011;63122;52.424;13.458;2023-06-19T08:03:44;24.20;;;14.18;;
41887;SDS011;63122;52.424;13.458;2023-06-19T08:05:40;19.15;;;13.10;;
41887;SDS011;63122;52.424;13.458;2023-06-19T08:07:38;20.83;;;13.45;;
41887;SDS011;63122;52.424;13.458;2023-06-19T08:09:33;14.82;;;13.13;;
41887;SDS011;63122;52.424;13.458;2023-06-19T08:11:29;14.57;;;12.93;;
41887;SDS011;63122;52.424;13.458;2023-06-19T08:13:25;14.95;;;12.60;;
41887;SDS011;63122;52.424;13.458;2023-06-19T08:15:20;18.92;;;13.15;;
41887;SDS011;63122;52.424;13.458;2023-06-19T08:17:16;21.48;;;12.38;;
41887;SDS011;63122;52.424;13.458;2023-06-19T08:19:11;15.35;;;12.70;;
41887;SDS011;63122;52.424;13.458;2023-06-19T08:21:07;17.63;;;13.02;;
41887;SDS011;63122;52.424;13.458;2023-06-19T08:23:05;22.42;;;13.25;;
41887;SDS011;63122;52.424;13.458;2023-06-19T08:25:00;16.35;;;14.65;;
41887;SDS011;63122;52.424;13.458;2023-06-19T08:26:56;25.73;;;14.35;;
41887;SDS011;63122;52.424;13.458;2023-06-19T08:28:52;22.77;;;12.82;;
41887;SDS011;63122;52.424;13.458;2023-06-19T08:30:47;19.08;;;13.20;;
41887;SDS011;63122;52.424;13.458;2023-06-19T08:32:43;18.48;;;12.32;;
41887;SDS011;63122;52.424;13.458;2023-06-19T08:34:40;15.13;;;12.68;;
41887;SDS011;63122;52.424;13.458;2023-06-19T08:36:36;13.07;;;11.70;;
41887;SDS011;63122;52.424;13.458;2023-06-19T08:38:35;14.57;;;12.38;;
41887;SDS011;63122;52.424;13.458;2023-06-19T08:40:32;13.68;;;12.25;;
41887;SDS011;63122;52.424;13.458;2023-06-19T08:42:28;16.00;;;12.43;;
41887;SDS011;63122;52.424;13.458;2023-06-19T08:44:24;15.98;;;12.88;;
41887;SDS011;63122;52.424;13.458;2023-06-19T08:46:19;14.80;;;11.68;;
41887;SDS011;63122;52.424;13.458;2023-06-19T08:48:15;20.25;;;12.13;;
41887;SDS011;63122;52.424;13.458;2023-06-19T08:50:10;16.00;;;11.70;;
41887;SDS011;63122;52.424;13.458;2023-06-19T08:52:07;22.48;;;12.50;;
41887;SDS011;63122;52.424;13.458;2023-06-19T08:54:06;15.55;;;12.10;;
41887;SDS011;63122;52.424;13.458;2023-06-19T08:56:03;14.65;;;12.45;;
41887;SDS011;63122;52.424;13.458;2023-06-19T08:57:59;14.88;;;11.88;;
41887;SDS011;63122;52.424;13.458;2023-06-19T08:59:55;15.77;;;11.88;;
41887;SDS011;63122;52.424;13.458;2023-06-19T09:01:51;13.45;;;12.15;;
41887;SDS011;63122;52.424;13.458;2023-06-19T09:03:48;17.42;;;12.70;;
41887;SDS011;63122;52.424;13.458;2023-06-19T09:05:44;15.60;;;12.10;;
41887;SDS011;63122;52.424;13.458;2023-06-19T09:07:44;13.77;;;12.30;;
41887;SDS011;63122;52.424;13.458;2023-06-19T09:09:51;15.73;;;12.35;;
41887;SDS011;63122;52.424;13.458;2023-06-19T09:11:56;13.45;;;12.05;;
41887;SDS011;63122;52.424;13.458;2023-06-19T09:13:55;16.88;;;12.13;;
41887;SDS011;63122;52.424;13.458;2023-06-19T09:15:57;14.80;;;11.95;;
41887;SDS011;63122;52.424;13.458;2023-06-19T09:18:04;18.48;;;12.05;;
41887;SDS011;63122;52.424;13.458;2023-06-19T09:20:01;16.45;;;11.90;;
41887;SDS011;63122;52.424;13.458;2023-06-19T09:22:00;17.10;;;12.50;;
41887;SDS011;63122;52.424;13.458;2023-06-19T09:24:01;16.40;;;11.82;;
41887;SDS011;63122;52.424;13.458;2023-06-19T09:26:00;18.98;;;11.65;;
41887;SDS011;63122;52.424;13.458;2023-06-19T09:27:56;18.00;;;12.35;;
41887;SDS011;63122;52.424;13.458;2023-06-19T09:29:52;14.27;;;11.77;;
41887;SDS011;63122;52.424;13.458;2023-06-19T09:31:48;18.63;;;11.60;;
41887;SDS011;63122;52.424;13.458;2023-06-19T09:33:43;13.45;;;12.00;;
41887;SDS011;63122;52.424;13.458;2023-06-19T09:35:39;16.77;;;11.20;;
41887;SDS011;63122;52.424;13.458;2023-06-19T09:37:34;13.60;;;11.57;;
41887;SDS011;63122;52.424;13.458;2023-06-19T09:39:32;18.42;;;12.05;;
41887;SDS011;63122;52.424;13.458;2023-06-19T09:41:33;23.13;;;12.38;;
41887;SDS011;63122;52.424;13.458;2023-06-19T09:43:33;15.32;;;12.13;;
41887;SDS011;63122;52.424;13.458;2023-06-19T09:45:30;20.35;;;11.48;;
41887;SDS011;63122;52.424;13.458;2023-06-19T09:47:29;23.58;;;12.02;;
41887;SDS011;63122;52.424;13.458;2023-06-19T09:49:26;16.65;;;11.98;;
41887;SDS011;63122;52.424;13.458;2023-06-19T09:51:28;12.98;;;11.50;;
41887;SDS011;63122;52.424;13.458;2023-06-19T09:53:25;17.17;;;12.63;;
41887;SDS011;63122;52.424;13.458;2023-06-19T09:55:21;21.30;;;11.15;;
41887;SDS011;63122;52.424;13.458;2023-06-19T09:57:23;16.52;;;11.70;;
41887;SDS011;63122;52.424;13.458;2023-06-19T09:59:20;20.13;;;11.27;;
41887;SDS011;63122;52.424;13.458;2023-06-19T10:01:16;15.05;;;11.85;;
41887;SDS011;63122;52.424;13.458;2023-06-19T10:03:13;12.85;;;11.35;;
41887;SDS011;63122;52.424;13.458;2023-06-19T10:05:09;15.88;;;12.07;;
41887;SDS011;63122;52.424;13.458;2023-06-19T10:07:14;14.40;;;12.18;;
41887;SDS011;63122;52.424;13.458;2023-06-19T10:09:14;16.33;;;12.43;;
41887;SDS011;63122;52.424;13.458;2023-06-19T10:11:13;20.23;;;11.75;;
41887;SDS011;63122;52.424;13.458;2023-06-19T10:13:15;17.30;;;11.77;;
41887;SDS011;63122;52.424;13.458;2023-06-19T10:15:12;13.55;;;11.15;;
41887;SDS011;63122;52.424;13.458;2023-06-19T10:17:10;13.55;;;11.30;;
41887;SDS011;63122;52.424;13.458;2023-06-19T10:19:11;15.30;;;11.48;;
41887;SDS011;63122;52.424;13.458;2023-06-19T10:21:14;16.83;;;11.95;;
41887;SDS011;63122;52.424;13.458;2023-06-19T10:23:12;14.95;;;11.82;;
41887;SDS011;63122;52.424;13.458;2023-06-19T10:25:19;14.55;;;12.05;;
41887;SDS011;63122;52.424;13.458;2023-06-19T10:27:20;13.48;;;12.05;;
41887;SDS011;63122;52.424;13.458;2023-06-19T10:29:18;13.93;;;11.85;;
41887;SDS011;63122;52.424;13.458;2023-06-19T10:31:14;18.40;;;11.45;;
41887;SDS011;63122;52.424;13.458;2023-06-19T10:33:10;14.70;;;11.80;;
41887;SDS011;63122;52.424;13.458;2023-06-19T10:35:10;14.05;;;11.75;;
41887;SDS011;63122;52.424;13.458;2023-06-19T10:37:05;16.73;;;11.30;;
41887;SDS011;63122;52.424;13.458;2023-06-19T10:39:01;14.05;;;11.70;;
41887;SDS011;63122;52.424;13.458;2023-06-19T10:40:56;12.50;;;11.10;;
41887;SDS011;63122;52.424;13.458;2023-06-19T10:42:51;13.30;;;11.90;;
41887;SDS011;63122;52.424;13.458;2023-06-19T10:44:50;16.60;;;11.15;;
41887;SDS011;63122;52.424;13.458;2023-06-19T10:46:45;17.52;;;11.20;;
41887;SDS011;63122;52.424;13.458;2023-06-19T10:48:40;12.07;;;10.10;;
41887;SDS011;63122;52.424;13.458;2023-06-19T10:50:36;15.98;;;11.05;;
41887;SDS011;63122;52.424;13.458;2023-06-19T10:52:36;13.43;;;10.40;;
41887;SDS011;63122;52.424;13.458;2023-06-19T10:54:34;13.98;;;11.07;;
41887;SDS011;63122;52.424;13.458;2023-06-19T10:56:29;13.90;;;10.40;;
41887;SDS011;63122;52.424;13.458;2023-06-19T10:58:25;11.52;;;10.38;;
41887;SDS011;63122;52.424;13.458;2023-06-19T11:00:27;17.45;;;10.68;;
41887;SDS011;63122;52.424;13.458;2023-06-19T11:02:23;13.68;;;10.40;;
41887;SDS011;63122;52.424;13.458;2023-06-19T11:04:19;11.88;;;10.43;;
41887;SDS011;63122;52.424;13.458;2023-06-19T11:06:19;18.80;;;11.48;;
41887;SDS011;63122;52.424;13.458;2023-06-19T11:08:17;16.05;;;11.60;;
41887;SDS011;63122;52.424;13.458;2023-06-19T11:10:18;14.88;;;11.60;;
41887;SDS011;63122;52.424;13.458;2023-06-19T11:12:18;14.20;;;10.68;;
41887;SDS011;63122;52.424;13.458;2023-06-19T11:14:15;16.25;;;10.45;;
41887;SDS011;63122;52.424;13.458;2023-06-19T11:16:16;12.93;;;10.85;;